Hauptseite
METAR-TAF:

METAR-TAF

Flughäfen :

Flughafen Trollhättan-Vänersborg

Trollhättan-Vänersborg, Schweden

Breite: 58-19N, Länge: 012-21E, Höhe: 41 m

Beobachtung

Neuester Wetterbericht von vor 36 Minuten, um 20:50 UTC
Wind 2 kt aus Nord
Temperatur 2°C
Luftfeuchtigkeit 93%
Luftdruck 1016 hPa
Sichtweite: 9000 m

METAR: ESGT 262050Z AUTO 01002KT 9000 OVC014/// 02/01 Q1016

Zeit: 22:26 (21:26 UTC)

Prognose

Neuester Wetterbericht von vor 2 Stunden und 42 Minuten, um 18:44 UTC
Gültige Prognose vom 26 um 18 UTC bis 26 um 19 UTC
Wind 3 kt aus Nord
Sichtweite 10 km oder mehr
Durchbrochene Bewölkung in der Höhe von 700 ft
Übergehend zu
vom 26 um 18 UTC bis 26 um 19 UTC
Leicht bewölkt in der Höhe von 1000 ft
Geschlossene Wolkendecke in der Höhe von 1800 ft

TAF: ESGT 261844Z 2618/2619 01003KT 9999 BKN007 BECMG 2618/2619 FEW010 OVC018

Wetterbeobachtungen und Prognosen von mehr als 4000 Flughäfen (METAR und TAF Bericht).

Die verfügbaren Stationen werden durch gelbe und rote Markierungen auf der Karte dargestellt.

Führen Sie die Maus auf sie, um den Namen der Station zu sehen.

Darauf klicken, um die Beobachtung von Wetterbeobachtungen und Prognosen zu sehen.

Um die Karte zu ändern : klicken Sie auf den grünen Tasten mit einem schwarzen Kreuz Zum Vergrößern, auf den grünen Button mit einem Gedankenstrich zu verkleinern, oder auf die grünen Pfeile für benachbarte Karten.


METAR-TAF: